Laguna de Duero, Spain
Current Conditions -  °F | °C
As of 6:00 PM on Friday 24 Oct 2014 (Local Time) from LEVD Reporting Station
Clear Clear  
Wind Chill: 72°   Ceiling: Unl
Heat Index: 72°   Visibility: 6mi
Dew Point: 50°   Wind: 5mph
Humidity: 46%   Direction: 340°NNW
Pressure: 30.15"   Gusts: NA
Location:  41.58°N, 4.72°W
Report Text: LEVD 241600Z 34004KT 300V010 CAVOK 22/10 Q1021
Loading
Personal Weather Stations






























Interactive Weather Map New forecast layout! Learn more

10-Day Weather Forecast

Advertisements
Track Severe Weather on mobile